createdAt,value
2022-09-28T00:01:30.404Z,10.00
2022-09-28T00:03:57.599Z,10.10
2022-09-28T00:06:26.409Z,10.00
2022-09-28T00:08:53.822Z,10.00
2022-09-28T00:11:25.882Z,10.00
2022-09-28T00:13:55.827Z,10.00
2022-09-28T00:16:51.454Z,10.00
2022-09-28T00:19:18.253Z,10.00
2022-09-28T00:21:45.317Z,10.00
2022-09-28T00:24:16.490Z,10.00
2022-09-28T00:26:56.016Z,10.00
2022-09-28T00:29:31.165Z,10.00
2022-09-28T00:32:01.721Z,10.00
2022-09-28T00:34:34.035Z,10.00
2022-09-28T00:37:25.908Z,10.00
2022-09-28T00:39:52.698Z,10.00
2022-09-28T00:42:25.847Z,10.00
2022-09-28T00:44:52.842Z,10.00
2022-09-28T00:47:44.758Z,10.00
2022-09-28T00:50:30.664Z,10.00
2022-09-28T00:53:09.138Z,10.00
2022-09-28T00:56:10.486Z,10.00
2022-09-28T00:58:44.680Z,10.00
2022-09-28T01:01:27.494Z,10.00
2022-09-28T01:03:54.338Z,10.00
2022-09-28T01:06:23.210Z,10.00
2022-09-28T01:08:52.223Z,10.00
2022-09-28T01:11:24.496Z,10.10
2022-09-28T01:13:59.494Z,10.00
2022-09-28T01:16:51.495Z,10.00
2022-09-28T01:20:15.530Z,10.00
2022-09-28T01:23:20.591Z,10.00
2022-09-28T01:25:57.872Z,10.00
2022-09-28T01:28:28.069Z,10.00
2022-09-28T01:31:15.539Z,10.00
2022-09-28T01:33:53.831Z,10.00
2022-09-28T01:36:35.984Z,10.00
2022-09-28T01:39:08.547Z,10.10
2022-09-28T01:41:48.512Z,10.10
2022-09-28T01:44:18.489Z,10.10
2022-09-28T01:46:49.877Z,10.10
2022-09-28T01:49:33.563Z,10.20
2022-09-28T01:55:11.075Z,10.20
2022-09-28T01:57:54.219Z,10.20
2022-09-28T02:00:25.433Z,10.20
2022-09-28T02:03:08.412Z,10.20
2022-09-28T02:06:00.204Z,10.20
2022-09-28T02:08:40.229Z,10.30
2022-09-28T02:11:16.559Z,10.20
2022-09-28T02:14:04.892Z,10.30
2022-09-28T02:16:44.227Z,10.30
2022-09-28T02:19:31.825Z,10.30
2022-09-28T02:22:36.538Z,10.40
2022-09-28T02:25:12.864Z,10.40
2022-09-28T02:27:47.969Z,10.50
2022-09-28T02:30:17.249Z,10.50
2022-09-28T02:32:55.029Z,10.50
2022-09-28T02:35:24.542Z,10.50
2022-09-28T02:37:51.632Z,10.60
2022-09-28T02:40:27.125Z,10.60
2022-09-28T02:43:21.507Z,10.60
2022-09-28T02:46:09.210Z,10.60
2022-09-28T02:49:00.144Z,10.60
2022-09-28T02:52:13.669Z,10.50
2022-09-28T02:55:29.898Z,10.50
2022-09-28T02:58:15.166Z,10.50
2022-09-28T03:00:56.630Z,10.50
2022-09-28T03:03:43.959Z,10.50
2022-09-28T03:06:23.735Z,10.40
2022-09-28T03:09:12.318Z,10.40
2022-09-28T03:11:57.474Z,10.40
2022-09-28T03:14:24.481Z,10.30
2022-09-28T03:16:56.229Z,10.40
2022-09-28T03:19:28.603Z,10.30
2022-09-28T03:21:56.346Z,10.30
2022-09-28T03:24:22.929Z,10.30
2022-09-28T03:26:52.308Z,10.30
2022-09-28T03:29:21.584Z,10.30
2022-09-28T03:31:54.385Z,10.30
2022-09-28T03:34:22.480Z,10.20
2022-09-28T03:36:52.184Z,10.20
2022-09-28T03:39:24.205Z,10.30
2022-09-28T03:41:54.584Z,10.30
2022-09-28T03:44:21.789Z,10.30
2022-09-28T03:46:49.766Z,10.30
2022-09-28T03:49:21.198Z,10.30
2022-09-28T03:51:53.699Z,10.30
2022-09-28T03:57:16.855Z,10.30
2022-09-28T03:59:43.738Z,10.20
2022-09-28T04:02:10.452Z,10.20
2022-09-28T04:04:40.265Z,10.20
2022-09-28T04:07:06.943Z,10.20
2022-09-28T04:09:33.798Z,10.20
2022-09-28T04:12:11.515Z,10.20
2022-09-28T04:14:38.133Z,10.20
2022-09-28T04:17:07.288Z,10.20
2022-09-28T04:19:34.251Z,10.10
2022-09-28T04:22:18.757Z,10.10
2022-09-28T04:24:45.760Z,10.10
2022-09-28T04:27:37.934Z,10.10
2022-09-28T04:30:07.992Z,10.10
2022-09-28T04:32:39.157Z,10.10
2022-09-28T04:35:09.420Z,10.10
2022-09-28T04:37:36.295Z,10.10
2022-09-28T04:40:06.924Z,10.10
2022-09-28T04:42:36.021Z,10.10
2022-09-28T04:45:04.056Z,10.10
2022-09-28T04:47:32.061Z,10.20
2022-09-28T04:49:58.710Z,10.20
2022-09-28T04:52:39.827Z,10.20
2022-09-28T04:55:12.864Z,10.20
2022-09-28T04:57:40.123Z,10.20
2022-09-28T05:00:08.490Z,10.20
2022-09-28T05:02:40.574Z,10.20
2022-09-28T05:05:27.548Z,10.20
2022-09-28T05:08:12.893Z,10.20
2022-09-28T05:10:40.761Z,10.20
2022-09-28T05:13:08.841Z,10.20
2022-09-28T05:15:41.295Z,10.20
2022-09-28T05:18:10.779Z,10.20
2022-09-28T05:20:54.837Z,10.20
2022-09-28T05:23:21.494Z,10.20
2022-09-28T05:25:48.641Z,10.10
2022-09-28T05:28:28.265Z,10.20
2022-09-28T05:31:13.876Z,10.20
2022-09-28T05:33:56.248Z,10.10
2022-09-28T05:36:28.869Z,10.20
2022-09-28T05:38:57.240Z,10.20
2022-09-28T05:41:26.065Z,10.20
2022-09-28T05:43:54.238Z,10.20
2022-09-28T05:46:22.977Z,10.20
2022-09-28T05:48:53.773Z,10.20
2022-09-28T05:51:25.849Z,10.20
2022-09-28T05:53:57.510Z,10.20
2022-09-28T05:56:31.242Z,10.20
2022-09-28T06:01:47.155Z,10.20
2022-09-28T06:04:19.151Z,10.20
2022-09-28T06:06:48.878Z,10.30
2022-09-28T06:09:25.943Z,10.30
2022-09-28T06:12:12.642Z,10.30
2022-09-28T06:14:47.872Z,10.30
2022-09-28T06:17:15.891Z,10.30
2022-09-28T06:19:48.042Z,10.30
2022-09-28T06:22:27.976Z,10.30
2022-09-28T06:25:09.674Z,10.40
2022-09-28T06:27:43.091Z,10.40
2022-09-28T06:30:12.397Z,10.40
2022-09-28T06:32:39.994Z,10.40
2022-09-28T06:35:08.042Z,10.40
2022-09-28T06:37:35.521Z,10.40
2022-09-28T06:40:02.726Z,10.40
2022-09-28T06:42:30.460Z,10.40
2022-09-28T06:45:40.936Z,10.40
2022-09-28T06:48:30.281Z,10.40
2022-09-28T06:50:57.148Z,10.50
2022-09-28T06:53:33.469Z,10.50
2022-09-28T06:56:10.846Z,10.60
2022-09-28T06:58:37.562Z,10.60
2022-09-28T07:01:11.292Z,10.60
2022-09-28T07:04:01.432Z,10.60
2022-09-28T07:06:59.464Z,10.60
2022-09-28T07:09:55.490Z,10.60
2022-09-28T07:12:37.565Z,10.60
2022-09-28T07:15:20.604Z,10.60
2022-09-28T07:18:00.531Z,10.60
2022-09-28T07:20:42.753Z,10.60
2022-09-28T07:23:19.785Z,10.60
2022-09-28T07:26:08.862Z,10.60
2022-09-28T07:29:00.852Z,10.60
2022-09-28T07:31:31.557Z,10.60
2022-09-28T07:34:23.302Z,10.60
2022-09-28T07:37:00.944Z,10.60
2022-09-28T07:39:28.491Z,10.60
2022-09-28T07:42:02.623Z,10.70
2022-09-28T07:44:33.910Z,10.70
2022-09-28T07:47:01.896Z,10.70
2022-09-28T07:49:59.038Z,10.80
2022-09-28T07:52:43.594Z,10.80
2022-09-28T07:55:32.336Z,10.80
2022-09-28T07:58:25.467Z,10.80
2022-09-28T08:01:19.165Z,10.80
2022-09-28T08:03:48.019Z,10.90
2022-09-28T08:06:25.423Z,10.90
2022-09-28T08:08:55.534Z,10.90
2022-09-28T08:11:26.919Z,10.90
2022-09-28T08:14:10.411Z,11.00
2022-09-28T08:16:57.318Z,11.00
2022-09-28T08:20:17.882Z,11.00
2022-09-28T08:23:04.928Z,11.10
2022-09-28T08:26:10.120Z,11.20
2022-09-28T08:28:55.283Z,11.20
2022-09-28T08:31:48.728Z,11.30
2022-09-28T08:34:42.694Z,11.40
2022-09-28T08:37:29.778Z,11.40
2022-09-28T08:40:23.829Z,11.40
2022-09-28T08:43:56.157Z,11.40
2022-09-28T08:46:58.296Z,11.40
2022-09-28T08:49:46.798Z,11.50
2022-09-28T08:52:46.354Z,11.60
2022-09-28T08:55:39.067Z,11.60
2022-09-28T08:58:39.435Z,11.60
2022-09-28T09:01:11.189Z,11.70
2022-09-28T09:03:44.064Z,11.90
2022-09-28T09:07:15.414Z,12.00
2022-09-28T09:09:58.798Z,12.10
2022-09-28T09:12:36.825Z,12.20
2022-09-28T09:15:24.968Z,12.20
2022-09-28T09:18:08.748Z,12.20
2022-09-28T09:20:51.772Z,12.30
2022-09-28T09:23:45.424Z,12.30
2022-09-28T09:26:24.184Z,12.50
2022-09-28T09:29:13.021Z,12.70
2022-09-28T09:31:57.372Z,12.80
2022-09-28T09:34:58.395Z,12.80
2022-09-28T09:38:21.475Z,12.90
2022-09-28T09:41:43.158Z,13.10
2022-09-28T09:44:38.553Z,13.10
2022-09-28T09:50:48.074Z,12.90
2022-09-28T09:53:37.669Z,13.00
2022-09-28T09:56:20.642Z,13.10
2022-09-28T09:59:15.158Z,13.10
2022-09-28T10:02:22.032Z,13.10
2022-09-28T10:05:12.433Z,13.10
2022-09-28T10:08:03.273Z,13.20
2022-09-28T10:11:11.980Z,13.10
2022-09-28T10:16:26.438Z,12.90
2022-09-28T10:19:00.235Z,12.90
2022-09-28T10:21:59.225Z,13.10
2022-09-28T10:24:34.251Z,13.50
2022-09-28T10:27:06.880Z,13.70
2022-09-28T10:30:01.433Z,14.00
2022-09-28T10:33:00.620Z,14.00
2022-09-28T10:35:43.653Z,13.90
2022-09-28T10:38:20.092Z,13.70
2022-09-28T10:41:10.243Z,13.80
2022-09-28T10:44:08.100Z,13.80
2022-09-28T10:46:41.002Z,13.90
2022-09-28T10:49:19.806Z,13.70
2022-09-28T10:51:59.071Z,13.90
2022-09-28T10:54:31.826Z,14.00
2022-09-28T10:57:00.185Z,14.10
2022-09-28T10:59:39.727Z,14.30
2022-09-28T11:02:47.288Z,14.50
2022-09-28T11:05:22.379Z,14.50
2022-09-28T11:08:15.167Z,14.30
2022-09-28T11:10:46.171Z,14.20
2022-09-28T11:13:16.134Z,14.10
2022-09-28T11:15:52.271Z,14.10
2022-09-28T11:18:34.263Z,14.20
2022-09-28T11:21:11.739Z,14.30
2022-09-28T11:24:06.707Z,14.40
2022-09-28T11:26:44.719Z,14.40
2022-09-28T11:29:30.583Z,14.40
2022-09-28T11:32:44.464Z,14.50
2022-09-28T11:35:42.452Z,14.50
2022-09-28T11:38:33.378Z,14.60
2022-09-28T11:41:43.478Z,14.80
2022-09-28T11:44:33.486Z,14.90
2022-09-28T11:47:54.702Z,15.10
2022-09-28T11:50:31.440Z,14.70
2022-09-28T11:53:15.518Z,14.50
2022-09-28T11:56:09.727Z,14.40
2022-09-28T12:01:53.002Z,14.00
2022-09-28T12:04:43.979Z,14.00
2022-09-28T12:07:30.891Z,14.00
2022-09-28T12:10:45.402Z,13.90
2022-09-28T12:13:19.464Z,13.90
2022-09-28T12:19:17.011Z,14.00
2022-09-28T12:21:50.534Z,14.00
2022-09-28T12:24:44.307Z,14.00
2022-09-28T12:27:20.996Z,14.20
2022-09-28T12:30:15.996Z,14.40
2022-09-28T12:32:53.611Z,14.50
2022-09-28T12:36:02.163Z,14.70
2022-09-28T12:38:34.424Z,15.10
2022-09-28T12:41:16.419Z,15.70
2022-09-28T12:44:19.395Z,16.20
2022-09-28T12:50:38.017Z,16.70
2022-09-28T12:53:05.911Z,16.40
2022-09-28T12:55:57.944Z,16.10
2022-09-28T12:58:36.897Z,16.00
2022-09-28T13:01:25.417Z,15.70
2022-09-28T13:04:19.472Z,15.50
2022-09-28T13:07:04.745Z,15.10
2022-09-28T13:09:54.547Z,15.00
2022-09-28T13:12:43.392Z,14.90
2022-09-28T13:15:36.596Z,14.80
2022-09-28T13:18:16.669Z,14.70
2022-09-28T13:20:47.688Z,14.70
2022-09-28T13:23:26.715Z,14.60
2022-09-28T13:26:03.789Z,14.50
2022-09-28T13:28:32.110Z,14.40
2022-09-28T13:31:01.475Z,14.40
2022-09-28T13:33:38.790Z,14.50
2022-09-28T13:36:27.796Z,14.50
2022-09-28T13:38:59.176Z,14.50
2022-09-28T13:41:35.312Z,14.50
2022-09-28T13:44:16.629Z,14.60
2022-09-28T13:46:44.247Z,14.70
2022-09-28T13:49:26.141Z,14.80
2022-09-28T13:52:23.229Z,15.00
2022-09-28T13:54:56.068Z,15.30
2022-09-28T13:58:03.767Z,15.30
2022-09-28T14:00:48.935Z,15.30
2022-09-28T14:03:44.142Z,15.40
2022-09-28T14:06:22.581Z,15.30
2022-09-28T14:09:07.475Z,15.10
2022-09-28T14:11:41.990Z,14.90
2022-09-28T14:14:11.082Z,14.90
2022-09-28T14:16:40.769Z,14.80
2022-09-28T14:19:26.249Z,14.70
2022-09-28T14:22:14.678Z,14.60
2022-09-28T14:25:16.450Z,14.50
2022-09-28T14:28:07.498Z,14.40
2022-09-28T14:30:43.896Z,14.30
2022-09-28T14:33:32.702Z,14.30
2022-09-28T14:36:46.134Z,14.30
2022-09-28T14:39:39.171Z,14.20
2022-09-28T14:42:18.239Z,14.20
2022-09-28T14:45:10.714Z,14.10
2022-09-28T14:47:43.439Z,14.10
2022-09-28T14:50:23.873Z,14.10
2022-09-28T14:53:13.873Z,14.00
2022-09-28T14:55:56.902Z,13.90
2022-09-28T14:58:27.198Z,13.90
2022-09-28T15:00:59.032Z,14.00
2022-09-28T15:03:35.190Z,14.00
2022-09-28T15:06:02.049Z,14.10
2022-09-28T15:08:37.761Z,14.20
2022-09-28T15:11:22.500Z,14.30
2022-09-28T15:14:06.872Z,14.30
2022-09-28T15:16:33.610Z,14.30
2022-09-28T15:19:06.878Z,14.30
2022-09-28T15:21:40.219Z,14.20
2022-09-28T15:24:30.736Z,14.20
2022-09-28T15:27:21.660Z,14.20
2022-09-28T15:29:58.740Z,14.10
2022-09-28T15:32:30.952Z,14.10
2022-09-28T15:35:23.844Z,14.00
2022-09-28T15:37:54.550Z,13.90
2022-09-28T15:40:39.871Z,13.90
2022-09-28T15:43:33.434Z,13.90
2022-09-28T15:46:21.304Z,13.80
2022-09-28T15:49:01.808Z,13.70
2022-09-28T15:51:47.958Z,13.60
2022-09-28T15:54:19.956Z,13.50
2022-09-28T15:56:57.057Z,13.30
2022-09-28T15:59:32.589Z,13.10
2022-09-28T16:05:53.671Z,12.90
2022-09-28T16:08:36.597Z,12.70
2022-09-28T16:11:35.783Z,12.60
2022-09-28T16:14:20.469Z,12.60
2022-09-28T16:17:04.857Z,12.60
2022-09-28T16:19:36.753Z,12.60
2022-09-28T16:22:10.006Z,12.50
2022-09-28T16:24:40.609Z,12.50
2022-09-28T16:27:45.531Z,12.50
2022-09-28T16:30:31.748Z,12.50
2022-09-28T16:33:04.477Z,12.50
2022-09-28T16:35:32.476Z,12.50
2022-09-28T16:38:15.929Z,12.50
2022-09-28T16:40:53.098Z,12.40
2022-09-28T16:43:29.286Z,12.30
2022-09-28T16:46:04.714Z,12.20
2022-09-28T16:48:35.820Z,12.20
2022-09-28T16:51:02.583Z,12.10
2022-09-28T16:57:10.589Z,12.10
2022-09-28T16:59:37.676Z,12.10
2022-09-28T17:05:19.828Z,12.10
2022-09-28T17:07:53.929Z,12.10
2022-09-28T17:11:09.359Z,12.10
2022-09-28T17:13:35.331Z,12.10
2022-09-28T17:16:09.649Z,12.10
2022-09-28T17:18:40.247Z,12.10
2022-09-28T17:21:12.245Z,12.00
2022-09-28T17:23:39.964Z,12.00
2022-09-28T17:26:36.107Z,12.00
2022-09-28T17:29:06.522Z,11.90
2022-09-28T17:31:33.124Z,11.80
2022-09-28T17:34:01.568Z,11.70
2022-09-28T17:36:30.701Z,11.60
2022-09-28T17:38:57.562Z,11.60
2022-09-28T17:41:24.539Z,11.40
2022-09-28T17:43:51.246Z,11.40
2022-09-28T17:46:33.217Z,11.30
2022-09-28T17:49:05.396Z,11.30
2022-09-28T17:51:37.717Z,11.40
2022-09-28T17:54:07.913Z,11.40
2022-09-28T17:56:37.470Z,11.40
2022-09-28T17:59:07.157Z,11.50
2022-09-28T18:01:37.133Z,11.50
2022-09-28T18:04:05.936Z,11.50
2022-09-28T18:06:36.380Z,11.50
2022-09-28T18:09:15.277Z,11.50
2022-09-28T18:11:46.994Z,11.50
2022-09-28T18:14:17.772Z,11.50
2022-09-28T18:16:45.255Z,11.50
2022-09-28T18:19:20.650Z,11.30
2022-09-28T18:21:58.516Z,11.20
2022-09-28T18:24:29.029Z,11.10
2022-09-28T18:26:56.074Z,11.00
2022-09-28T18:29:32.860Z,11.00
2022-09-28T18:32:05.478Z,10.90
2022-09-28T18:34:36.407Z,10.80
2022-09-28T18:37:05.303Z,10.70
2022-09-28T18:39:31.965Z,10.60
2022-09-28T18:41:58.595Z,10.60
2022-09-28T18:44:46.343Z,10.50
2022-09-28T18:47:17.105Z,10.50
2022-09-28T18:49:46.931Z,10.40
2022-09-28T18:52:14.749Z,10.30
2022-09-28T18:54:45.951Z,10.30
2022-09-28T18:57:15.814Z,10.20
2022-09-28T18:59:44.481Z,10.20
2022-09-28T19:02:15.313Z,10.20
2022-09-28T19:04:44.240Z,10.20
2022-09-28T19:07:36.261Z,10.20
2022-09-28T19:10:10.289Z,10.20
2022-09-28T19:12:36.929Z,10.20
2022-09-28T19:15:03.919Z,10.20
2022-09-28T19:17:32.620Z,10.20
2022-09-28T19:20:02.281Z,10.20
2022-09-28T19:22:31.775Z,10.20
2022-09-28T19:25:01.678Z,10.10
2022-09-28T19:27:28.768Z,10.10
2022-09-28T19:29:57.491Z,10.10
2022-09-28T19:38:23.456Z,9.90
2022-09-28T19:41:16.117Z,10.00
2022-09-28T19:43:45.436Z,9.90
2022-09-28T19:46:15.826Z,9.80
2022-09-28T19:48:48.195Z,9.80
2022-09-28T19:51:18.845Z,9.80
2022-09-28T19:53:45.484Z,9.80
2022-09-28T19:56:12.230Z,9.80
2022-09-28T19:58:41.110Z,9.80
2022-09-28T20:01:10.328Z,9.80
2022-09-28T20:03:39.469Z,9.80
2022-09-28T20:06:07.377Z,9.80
2022-09-28T20:08:34.797Z,9.80
2022-09-28T20:11:01.491Z,9.80
2022-09-28T20:13:33.186Z,9.80
2022-09-28T20:16:09.404Z,9.80
2022-09-28T20:18:39.271Z,9.80
2022-09-28T20:21:09.830Z,9.90
2022-09-28T20:23:36.811Z,9.80
2022-09-28T20:26:05.416Z,9.80
2022-09-28T20:28:43.172Z,9.80
2022-09-28T20:31:23.419Z,9.80
2022-09-28T20:33:53.129Z,9.80
2022-09-28T20:36:24.412Z,9.80
2022-09-28T20:39:01.066Z,9.80
2022-09-28T20:41:34.267Z,9.80
2022-09-28T20:44:05.325Z,9.80
2022-09-28T20:46:34.302Z,9.70
2022-09-28T20:49:01.107Z,9.70
2022-09-28T20:51:53.149Z,9.70
2022-09-28T20:54:20.768Z,9.60
2022-09-28T20:56:49.692Z,9.50
2022-09-28T20:59:17.415Z,9.50
2022-09-28T21:01:44.160Z,9.40
2022-09-28T21:04:36.070Z,9.40
2022-09-28T21:07:02.986Z,9.40
2022-09-28T21:09:32.290Z,9.30
2022-09-28T21:11:59.220Z,9.30
2022-09-28T21:14:31.446Z,9.20
2022-09-28T21:17:00.921Z,9.20
2022-09-28T21:19:32.958Z,9.20
2022-09-28T21:22:00.302Z,9.10
2022-09-28T21:24:30.329Z,9.10
2022-09-28T21:26:58.787Z,9.10
2022-09-28T21:29:27.613Z,9.00
2022-09-28T21:31:55.519Z,9.00
2022-09-28T21:34:24.567Z,9.00
2022-09-28T21:36:54.420Z,9.00
2022-09-28T21:39:24.391Z,8.90
2022-09-28T21:41:51.093Z,8.90
2022-09-28T21:44:17.878Z,8.90
2022-09-28T21:46:45.033Z,8.80
2022-09-28T21:49:16.314Z,8.80
2022-09-28T21:51:44.614Z,8.80
2022-09-28T21:54:14.693Z,8.80
2022-09-28T21:56:44.887Z,8.70
2022-09-28T21:59:12.744Z,8.70
2022-09-28T22:01:43.505Z,8.70
2022-09-28T22:04:11.016Z,8.60
2022-09-28T22:06:39.275Z,8.60
2022-09-28T22:09:08.327Z,8.50
2022-09-28T22:11:39.563Z,8.50
2022-09-28T22:14:06.231Z,8.50
2022-09-28T22:16:36.159Z,8.50
2022-09-28T22:19:06.024Z,8.40
2022-09-28T22:21:34.178Z,8.40
2022-09-28T22:24:03.274Z,8.40
2022-09-28T22:26:31.377Z,8.40
2022-09-28T22:29:07.497Z,8.30
2022-09-28T22:34:31.186Z,8.30
2022-09-28T22:37:04.415Z,8.20
2022-09-28T22:39:37.453Z,8.20
2022-09-28T22:42:07.552Z,8.10
2022-09-28T22:44:36.997Z,8.10
2022-09-28T22:47:04.678Z,8.10
2022-09-28T22:49:31.276Z,8.00
2022-09-28T22:52:01.475Z,8.00
2022-09-28T22:54:30.710Z,8.00
2022-09-28T22:57:02.132Z,8.00
2022-09-28T22:59:29.614Z,8.00
2022-09-28T23:01:56.324Z,8.00
2022-09-28T23:04:25.594Z,7.90
2022-09-28T23:06:54.380Z,7.90
2022-09-28T23:09:20.976Z,7.90
2022-09-28T23:11:47.646Z,7.90
2022-09-28T23:14:14.424Z,7.80
2022-09-28T23:16:43.288Z,7.80
2022-09-28T23:19:10.214Z,7.80
2022-09-28T23:21:38.368Z,7.80
2022-09-28T23:24:10.140Z,7.70
2022-09-28T23:26:44.492Z,7.70
2022-09-28T23:29:18.138Z,7.60
2022-09-28T23:31:46.063Z,7.60
2022-09-28T23:34:12.804Z,7.60
2022-09-28T23:36:40.099Z,7.60
2022-09-28T23:39:06.800Z,7.60
2022-09-28T23:41:36.594Z,7.50
2022-09-28T23:44:05.292Z,7.50
2022-09-28T23:46:31.910Z,7.50
2022-09-28T23:48:58.567Z,7.40
2022-09-28T23:51:31.409Z,7.30
2022-09-28T23:53:58.331Z,7.30
2022-09-28T23:56:24.882Z,7.20
2022-09-28T23:58:51.589Z,7.20
